• Join FlightAware (Why Join?)
  • Login
  • US Flag 
03:43AM EDT


 

Airport Tracker/Info


-or-


 

Live Flight TrackerFlight Track Log ✈ SKW6345 ✈ 21-Dec-2013 ✈ KASE - KDEN

Flight Track Log - Related Links

Times and Time Zones

All times are in EST time to prevent confusion due to time zone crossing. See the SKW6345 flight status page for this flight to view local times or setup timezone preferences in your user account.

Time Position Orientation Groundspeed Altitude Reporting Facility
EST Latitude Longitude Course Direction KTS MPH feet Rate Location/Type
01:37PM 39.2889 -107.0083 106° East 252 290 13,100  Level Denver Center
01:38PM 39.3508 -107.0706 322° Northwest 291 335 15,300 1,440 Climbing Denver Center
01:39PM 39.3942 -106.9803 58° Northeast 339 390 16,100 960 Climbing Denver Center
01:40PM 39.3853 -106.8533 95° East 365 420 17,400 1,860 Climbing Denver Center
01:41PM 39.3579 -106.4163 101° East  Level Estimated
01:41PM 39.3731 -106.6950 96° East 374 430 20,000  Level Denver Center
01:42PM 39.3411 -106.3385 106° East  Level FlightAware Approximate
01:42PM 39.3597 -106.5547 97° East 376 433 21,000  Level Denver Center
01:43PM 39.3469 -106.4378 98° East 347 399 21,000  Level Denver Center
01:44PM 39.2872 -106.3311 126° Southeast 340 391 21,000 -300 Level Denver Center
01:45PM 39.2156 -106.2733 148° Southeast 342 394 20,400 -480 Descending Denver Center
01:46PM 39.1608 -106.1561 121° Southeast 340 391 20,000 -240 Descending Denver Center
01:47PM 39.1822 -106.0414 76° East 341 392 20,000  Level Denver Center
01:48PM 39.2214 -105.9314 65° Northeast 338 389 20,000  Level Denver Center
01:49PM 39.2600 -105.8214 66° East 338 389 20,000 -60 Level Denver Center
01:50PM 39.3056 -105.6914 66° East 332 382 19,900 -480 Descending Denver Center
01:51PM 39.3253 -105.5775 77° East 338 389 19,100 -840 Descending Denver Center
01:52PM 39.3300 -105.4572 87° East 325 374 18,200 -1,020 Descending Denver Center
01:53PM 39.3358 -105.3414 86° East 323 372 17,100 -1,020 Descending Denver Center
01:54PM 39.3414 -105.2139 87° East 328 377 16,200 -840 Descending Denver Center
01:55PM 39.3464 -105.1011 87° East 318 366 15,400 -780 Descending Denver Center
01:56PM 39.3503 -104.9964 87° East 273 314 14,600 -840 Descending Denver Center
01:57PM 39.3717 -104.9092 72° East 257 296 13,700 -840 Descending Denver Center
01:58PM 39.3969 -104.8183 70° East 252 290 12,900 -720 Descending Denver Center
01:59PM 39.4264 -104.7392 64° Northeast 245 282 12,300 -600 Descending Denver Center
02:01PM 39.4672 -104.6872 44° Northeast 194 223 11,700 -540 Descending Denver Center
02:02PM 39.5139 -104.6653 20° North 177 204 11,200 -600 Descending Denver Center
02:03PM 39.5678 -104.6644 North 181 208 10,500 -780 Descending Denver Center
02:04PM 39.6153 -104.6633 North 172 198 9,700 -840 Descending Denver Center
02:05PM 39.6642 -104.6619 North 165 190 8,800 -780 Descending Denver Center
02:06PM 39.7136 -104.6619 360° North 176 203 8,100 -900 Descending Denver Center
02:07PM 39.7683 -104.6614 360° North 183 211 7,000 -1,020 Descending Denver Center
02:08PM 39.8069 -104.6603 North 140 161 6,000 -780 Descending Denver Center
02:09PM 39.8397 -104.6600 360° North 131 151 5,400 -600 Descending Denver Center